Joplin, MO (64801)

6:26 PM CDT on August 31, 2015 (GMT -0500)
Oakland Park / Royal Heights | | Change Station
CLOSE
Current Station
Personal Weather Station
Location: Joplin, MO
Elevation: 1030 ft
Nearby Weather Stations

Elev 1030 ft 37.12 °N, 94.48 °W | Updated 7 minutes ago

Clear
Clear
89.8 °F
Feels Like 100 °F
N
2.2
Wind Variable Wind from SSW

Today
High -- | Low -- °F
--% Chance of Precip.
Yesterday
High -- | Low -- °F
Precip. -- in
6:47 AM 7:48 PM
Waning Gibbous, 93% visible
Pressure 29.96 in
Visibility 10.0 miles
Clouds Clear
Heat Index 100 °F
Dew Point 75 °F
Humidity 62%
Rainfall in
Snow Depth Not available.
UV 2 out of 12
Pollen 10.60 out of 12
Air Quality Not available.
Flu Activity Not available.
METAR KJLN 312253Z 18008KT 10SM CLR 31/20 A2999 RMK AO2 SLP144 T03060200
Pressure 29.96 in
Visibility 10.0 miles
Clouds Clear
Heat Index 100 °F
Dew Point 75 °F
Humidity 62%
Rainfall in
Snow Depth Not available.
UV 2 out of 12
Pollen 10.60 out of 12
Air Quality Not available.
Flu Activity Not available.
METAR KJLN 312253Z 18008KT 10SM CLR 31/20 A2999 RMK AO2 SLP144 T03060200

10-Day Weather Forecast

×

Almanac

Astronomy

Aug. 31, 2015 Rise Set
Actual Time
Civil Twilight
Nautical Twilight
Astronomical Twilight
Moon
Length of Visible Light
Length of Day
Tomorrow will be .
, % of the Moon is Illuminated

Today's Extremes

State Highs State Lows

Community

WunderPhotos

Upload Photos

1,851,392 photos uploaded!

WunderBlogs® & News

Nearby

Air Quality

  Air Quality AQ Index Pollutant
Not available.

Snow Depth

Station Depth Elevation

Earthquake Activity

City Distance Mag. Time & Date
Minimum magnitude displayed is 2.5.

Coastal Water Temperatures

Place Temperature

Stations

Nearby Weather Stations

Station Location Temp. Windchill Dew Point Humidity Wind Precip. Elev Updated Type